sensor_id;sensor_type;location;lat;lon;timestamp;P1;durP1;ratioP1;P2;durP2;ratioP2
3207;SDS011;1616;52.394;9.756;2022-08-14T00:02:02;6.10;;;5.53;;
3207;SDS011;1616;52.394;9.756;2022-08-14T00:04:30;5.57;;;5.27;;
3207;SDS011;1616;52.394;9.756;2022-08-14T00:06:57;6.20;;;5.70;;
3207;SDS011;1616;52.394;9.756;2022-08-14T00:09:23;5.50;;;5.20;;
3207;SDS011;1616;52.394;9.756;2022-08-14T00:11:49;6.00;;;5.60;;
3207;SDS011;1616;52.394;9.756;2022-08-14T00:14:15;5.80;;;5.30;;
3207;SDS011;1616;52.394;9.756;2022-08-14T00:16:41;9.70;;;6.23;;
3207;SDS011;1616;52.394;9.756;2022-08-14T00:19:07;7.00;;;5.70;;
3207;SDS011;1616;52.394;9.756;2022-08-14T00:21:34;6.40;;;6.00;;
3207;SDS011;1616;52.394;9.756;2022-08-14T00:23:59;5.90;;;5.50;;
3207;SDS011;1616;52.394;9.756;2022-08-14T00:26:25;5.97;;;5.70;;
3207;SDS011;1616;52.394;9.756;2022-08-14T00:28:51;5.43;;;5.23;;
3207;SDS011;1616;52.394;9.756;2022-08-14T00:31:18;6.00;;;5.70;;
3207;SDS011;1616;52.394;9.756;2022-08-14T00:33:44;6.50;;;6.30;;
3207;SDS011;1616;52.394;9.756;2022-08-14T00:36:10;9.10;;;6.37;;
3207;SDS011;1616;52.394;9.756;2022-08-14T00:38:35;8.13;;;7.43;;
3207;SDS011;1616;52.394;9.756;2022-08-14T00:41:02;10.13;;;6.57;;
3207;SDS011;1616;52.394;9.756;2022-08-14T00:43:31;6.30;;;5.93;;
3207;SDS011;1616;52.394;9.756;2022-08-14T00:46:02;6.80;;;6.03;;
3207;SDS011;1616;52.394;9.756;2022-08-14T00:48:29;7.23;;;6.77;;
3207;SDS011;1616;52.394;9.756;2022-08-14T00:50:55;7.10;;;6.53;;
3207;SDS011;1616;52.394;9.756;2022-08-14T00:53:22;7.60;;;6.87;;
3207;SDS011;1616;52.394;9.756;2022-08-14T00:55:49;8.50;;;6.17;;
3207;SDS011;1616;52.394;9.756;2022-08-14T00:58:16;6.03;;;5.83;;
3207;SDS011;1616;52.394;9.756;2022-08-14T01:00:55;5.90;;;5.60;;
3207;SDS011;1616;52.394;9.756;2022-08-14T01:03:25;6.57;;;6.07;;
3207;SDS011;1616;52.394;9.756;2022-08-14T01:05:53;11.33;;;6.73;;
3207;SDS011;1616;52.394;9.756;2022-08-14T01:08:24;6.70;;;6.23;;
3207;SDS011;1616;52.394;9.756;2022-08-14T01:10:52;6.43;;;5.93;;
3207;SDS011;1616;52.394;9.756;2022-08-14T01:13:23;6.57;;;5.73;;
3207;SDS011;1616;52.394;9.756;2022-08-14T01:15:53;6.90;;;6.30;;
3207;SDS011;1616;52.394;9.756;2022-08-14T01:18:20;6.13;;;5.63;;
3207;SDS011;1616;52.394;9.756;2022-08-14T01:21:08;6.13;;;5.73;;
3207;SDS011;1616;52.394;9.756;2022-08-14T01:23:43;5.93;;;5.43;;
3207;SDS011;1616;52.394;9.756;2022-08-14T01:26:14;6.23;;;5.80;;
3207;SDS011;1616;52.394;9.756;2022-08-14T01:28:44;8.23;;;6.10;;
3207;SDS011;1616;52.394;9.756;2022-08-14T01:31:13;7.07;;;6.67;;
3207;SDS011;1616;52.394;9.756;2022-08-14T01:33:42;6.30;;;6.00;;
3207;SDS011;1616;52.394;9.756;2022-08-14T01:36:11;9.67;;;6.50;;
3207;SDS011;1616;52.394;9.756;2022-08-14T01:38:38;6.43;;;6.13;;
3207;SDS011;1616;52.394;9.756;2022-08-14T01:41:06;8.33;;;7.57;;
3207;SDS011;1616;52.394;9.756;2022-08-14T01:43:50;7.07;;;6.57;;
3207;SDS011;1616;52.394;9.756;2022-08-14T01:46:19;6.77;;;6.47;;
3207;SDS011;1616;52.394;9.756;2022-08-14T01:48:46;7.63;;;7.13;;
3207;SDS011;1616;52.394;9.756;2022-08-14T01:51:14;6.93;;;6.50;;
3207;SDS011;1616;52.394;9.756;2022-08-14T01:53:45;8.30;;;7.47;;
3207;SDS011;1616;52.394;9.756;2022-08-14T01:56:14;6.80;;;6.50;;
3207;SDS011;1616;52.394;9.756;2022-08-14T01:58:45;6.90;;;6.60;;
3207;SDS011;1616;52.394;9.756;2022-08-14T02:01:17;8.73;;;8.10;;
3207;SDS011;1616;52.394;9.756;2022-08-14T02:03:44;6.93;;;6.53;;
3207;SDS011;1616;52.394;9.756;2022-08-14T02:06:11;6.67;;;6.20;;
3207;SDS011;1616;52.394;9.756;2022-08-14T02:08:38;6.80;;;6.50;;
3207;SDS011;1616;52.394;9.756;2022-08-14T02:11:06;7.87;;;7.20;;
3207;SDS011;1616;52.394;9.756;2022-08-14T02:13:50;7.97;;;7.13;;
3207;SDS011;1616;52.394;9.756;2022-08-14T02:16:24;7.60;;;7.30;;
3207;SDS011;1616;52.394;9.756;2022-08-14T02:18:55;8.70;;;7.80;;
3207;SDS011;1616;52.394;9.756;2022-08-14T02:21:24;8.43;;;7.73;;
3207;SDS011;1616;52.394;9.756;2022-08-14T02:23:51;7.67;;;7.20;;
3207;SDS011;1616;52.394;9.756;2022-08-14T02:26:22;8.43;;;7.83;;
3207;SDS011;1616;52.394;9.756;2022-08-14T02:28:53;6.90;;;6.40;;
3207;SDS011;1616;52.394;9.756;2022-08-14T02:31:24;7.10;;;6.60;;
3207;SDS011;1616;52.394;9.756;2022-08-14T02:33:55;8.97;;;8.37;;
3207;SDS011;1616;52.394;9.756;2022-08-14T02:36:21;8.50;;;8.10;;
3207;SDS011;1616;52.394;9.756;2022-08-14T02:38:48;7.57;;;7.27;;
3207;SDS011;1616;52.394;9.756;2022-08-14T02:41:14;7.50;;;7.10;;
3207;SDS011;1616;52.394;9.756;2022-08-14T02:43:42;7.43;;;7.03;;
3207;SDS011;1616;52.394;9.756;2022-08-14T02:46:08;7.60;;;7.20;;
3207;SDS011;1616;52.394;9.756;2022-08-14T02:48:38;9.33;;;8.57;;
3207;SDS011;1616;52.394;9.756;2022-08-14T02:51:07;8.07;;;7.70;;
3207;SDS011;1616;52.394;9.756;2022-08-14T02:53:35;7.73;;;7.33;;
3207;SDS011;1616;52.394;9.756;2022-08-14T02:56:06;8.83;;;8.20;;
3207;SDS011;1616;52.394;9.756;2022-08-14T02:58:35;8.17;;;7.57;;
3207;SDS011;1616;52.394;9.756;2022-08-14T03:01:04;8.70;;;8.03;;
3207;SDS011;1616;52.394;9.756;2022-08-14T03:03:30;8.50;;;7.53;;
3207;SDS011;1616;52.394;9.756;2022-08-14T03:05:56;9.30;;;8.40;;
3207;SDS011;1616;52.394;9.756;2022-08-14T03:08:22;7.97;;;7.57;;
3207;SDS011;1616;52.394;9.756;2022-08-14T03:10:56;8.87;;;7.90;;
3207;SDS011;1616;52.394;9.756;2022-08-14T03:13:23;7.60;;;7.07;;
3207;SDS011;1616;52.394;9.756;2022-08-14T03:15:49;8.37;;;7.87;;
3207;SDS011;1616;52.394;9.756;2022-08-14T03:18:18;7.20;;;6.90;;
3207;SDS011;1616;52.394;9.756;2022-08-14T03:20:47;12.53;;;7.90;;
3207;SDS011;1616;52.394;9.756;2022-08-14T03:23:14;8.43;;;8.17;;
3207;SDS011;1616;52.394;9.756;2022-08-14T03:25:40;8.87;;;8.47;;
3207;SDS011;1616;52.394;9.756;2022-08-14T03:28:07;8.50;;;8.20;;
3207;SDS011;1616;52.394;9.756;2022-08-14T03:30:34;7.90;;;7.50;;
3207;SDS011;1616;52.394;9.756;2022-08-14T03:33:02;9.03;;;8.60;;
3207;SDS011;1616;52.394;9.756;2022-08-14T03:35:29;8.53;;;8.03;;
3207;SDS011;1616;52.394;9.756;2022-08-14T03:38:03;9.47;;;8.67;;
3207;SDS011;1616;52.394;9.756;2022-08-14T03:40:29;8.63;;;7.90;;
3207;SDS011;1616;52.394;9.756;2022-08-14T03:42:55;8.97;;;8.40;;
3207;SDS011;1616;52.394;9.756;2022-08-14T03:45:20;8.23;;;7.83;;
3207;SDS011;1616;52.394;9.756;2022-08-14T03:47:49;7.93;;;7.43;;
3207;SDS011;1616;52.394;9.756;2022-08-14T03:50:15;7.90;;;7.47;;
3207;SDS011;1616;52.394;9.756;2022-08-14T03:52:40;12.33;;;8.70;;
3207;SDS011;1616;52.394;9.756;2022-08-14T03:55:09;9.70;;;8.67;;
3207;SDS011;1616;52.394;9.756;2022-08-14T03:57:37;8.67;;;8.20;;
3207;SDS011;1616;52.394;9.756;2022-08-14T04:00:05;8.23;;;7.63;;
3207;SDS011;1616;52.394;9.756;2022-08-14T04:02:35;7.70;;;7.30;;
3207;SDS011;1616;52.394;9.756;2022-08-14T04:05:01;9.10;;;8.20;;
3207;SDS011;1616;52.394;9.756;2022-08-14T04:07:27;8.50;;;7.70;;
3207;SDS011;1616;52.394;9.756;2022-08-14T04:09:52;8.73;;;8.23;;
3207;SDS011;1616;52.394;9.756;2022-08-14T04:12:18;8.23;;;7.83;;
3207;SDS011;1616;52.394;9.756;2022-08-14T04:14:45;8.30;;;7.90;;
3207;SDS011;1616;52.394;9.756;2022-08-14T04:17:11;8.07;;;7.53;;
3207;SDS011;1616;52.394;9.756;2022-08-14T04:19:37;8.50;;;8.10;;
3207;SDS011;1616;52.394;9.756;2022-08-14T04:22:03;9.13;;;8.37;;
3207;SDS011;1616;52.394;9.756;2022-08-14T04:24:33;9.43;;;8.93;;
3207;SDS011;1616;52.394;9.756;2022-08-14T04:26:59;8.60;;;8.00;;
3207;SDS011;1616;52.394;9.756;2022-08-14T04:29:24;8.10;;;7.60;;
3207;SDS011;1616;52.394;9.756;2022-08-14T04:31:50;8.43;;;8.13;;
3207;SDS011;1616;52.394;9.756;2022-08-14T04:34:16;7.70;;;7.40;;
3207;SDS011;1616;52.394;9.756;2022-08-14T04:36:42;7.93;;;7.60;;
3207;SDS011;1616;52.394;9.756;2022-08-14T04:39:26;7.73;;;7.40;;
3207;SDS011;1616;52.394;9.756;2022-08-14T04:42:11;7.37;;;7.07;;
3207;SDS011;1616;52.394;9.756;2022-08-14T04:44:55;9.20;;;7.87;;
3207;SDS011;1616;52.394;9.756;2022-08-14T04:47:22;7.93;;;7.40;;
3207;SDS011;1616;52.394;9.756;2022-08-14T04:50:06;5.80;;;5.60;;
3207;SDS011;1616;52.394;9.756;2022-08-14T04:52:32;7.47;;;7.07;;
3207;SDS011;1616;52.394;9.756;2022-08-14T04:54:57;7.30;;;6.73;;
3207;SDS011;1616;52.394;9.756;2022-08-14T04:57:23;7.50;;;6.90;;
3207;SDS011;1616;52.394;9.756;2022-08-14T04:59:49;7.20;;;6.57;;
3207;SDS011;1616;52.394;9.756;2022-08-14T05:02:17;6.70;;;6.27;;
3207;SDS011;1616;52.394;9.756;2022-08-14T05:04:42;7.17;;;6.70;;
3207;SDS011;1616;52.394;9.756;2022-08-14T05:07:08;7.67;;;7.03;;
3207;SDS011;1616;52.394;9.756;2022-08-14T05:09:34;7.33;;;7.03;;
3207;SDS011;1616;52.394;9.756;2022-08-14T05:11:59;6.00;;;5.67;;
3207;SDS011;1616;52.394;9.756;2022-08-14T05:14:25;7.10;;;6.47;;
3207;SDS011;1616;52.394;9.756;2022-08-14T05:16:52;5.23;;;5.03;;
3207;SDS011;1616;52.394;9.756;2022-08-14T05:19:17;6.20;;;5.83;;
3207;SDS011;1616;52.394;9.756;2022-08-14T05:21:43;5.00;;;4.80;;
3207;SDS011;1616;52.394;9.756;2022-08-14T05:24:09;5.43;;;5.07;;
3207;SDS011;1616;52.394;9.756;2022-08-14T05:26:36;6.23;;;5.93;;
3207;SDS011;1616;52.394;9.756;2022-08-14T05:29:08;4.90;;;4.70;;
3207;SDS011;1616;52.394;9.756;2022-08-14T05:31:34;5.43;;;5.23;;
3207;SDS011;1616;52.394;9.756;2022-08-14T05:34:04;5.13;;;4.87;;
3207;SDS011;1616;52.394;9.756;2022-08-14T05:36:31;5.67;;;5.47;;
3207;SDS011;1616;52.394;9.756;2022-08-14T05:38:58;5.57;;;5.17;;
3207;SDS011;1616;52.394;9.756;2022-08-14T05:41:23;5.37;;;4.87;;
3207;SDS011;1616;52.394;9.756;2022-08-14T05:43:49;6.10;;;5.50;;
3207;SDS011;1616;52.394;9.756;2022-08-14T05:46:16;5.60;;;5.30;;
3207;SDS011;1616;52.394;9.756;2022-08-14T05:48:50;5.90;;;5.50;;
3207;SDS011;1616;52.394;9.756;2022-08-14T05:51:18;6.33;;;5.73;;
3207;SDS011;1616;52.394;9.756;2022-08-14T05:53:45;6.83;;;6.00;;
3207;SDS011;1616;52.394;9.756;2022-08-14T05:56:11;4.93;;;4.73;;
3207;SDS011;1616;52.394;9.756;2022-08-14T05:58:37;5.70;;;4.60;;
3207;SDS011;1616;52.394;9.756;2022-08-14T06:01:03;5.33;;;5.03;;
3207;SDS011;1616;52.394;9.756;2022-08-14T06:03:30;4.50;;;4.30;;
3207;SDS011;1616;52.394;9.756;2022-08-14T06:05:56;4.70;;;4.30;;
3207;SDS011;1616;52.394;9.756;2022-08-14T06:08:23;4.63;;;4.33;;
3207;SDS011;1616;52.394;9.756;2022-08-14T06:10:50;4.93;;;4.63;;
3207;SDS011;1616;52.394;9.756;2022-08-14T06:13:17;4.10;;;3.90;;
3207;SDS011;1616;52.394;9.756;2022-08-14T06:15:44;4.63;;;4.33;;
3207;SDS011;1616;52.394;9.756;2022-08-14T06:18:10;4.33;;;4.13;;
3207;SDS011;1616;52.394;9.756;2022-08-14T06:20:36;4.43;;;4.13;;
3207;SDS011;1616;52.394;9.756;2022-08-14T06:23:03;4.83;;;4.60;;
3207;SDS011;1616;52.394;9.756;2022-08-14T06:25:29;4.30;;;4.10;;
3207;SDS011;1616;52.394;9.756;2022-08-14T06:27:55;4.53;;;4.33;;
3207;SDS011;1616;52.394;9.756;2022-08-14T06:30:23;4.47;;;4.07;;
3207;SDS011;1616;52.394;9.756;2022-08-14T06:32:51;5.83;;;4.00;;
3207;SDS011;1616;52.394;9.756;2022-08-14T06:35:17;5.80;;;4.40;;
3207;SDS011;1616;52.394;9.756;2022-08-14T06:40:21;4.03;;;3.72;;
3207;SDS011;1616;52.394;9.756;2022-08-14T06:42:51;3.65;;;3.45;;
3207;SDS011;1616;52.394;9.756;2022-08-14T06:45:17;10.80;;;3.80;;
3207;SDS011;1616;52.394;9.756;2022-08-14T06:47:43;3.90;;;3.60;;
3207;SDS011;1616;52.394;9.756;2022-08-14T06:50:11;5.00;;;4.70;;
3207;SDS011;1616;52.394;9.756;2022-08-14T06:52:39;5.10;;;3.80;;
3207;SDS011;1616;52.394;9.756;2022-08-14T06:55:06;4.43;;;4.22;;
3207;SDS011;1616;52.394;9.756;2022-08-14T06:57:38;3.75;;;3.47;;
3207;SDS011;1616;52.394;9.756;2022-08-14T07:00:11;4.85;;;4.50;;
3207;SDS011;1616;52.394;9.756;2022-08-14T07:02:39;3.92;;;3.72;;
3207;SDS011;1616;52.394;9.756;2022-08-14T07:05:24;3.40;;;3.10;;
3207;SDS011;1616;52.394;9.756;2022-08-14T07:08:27;4.93;;;4.03;;
3207;SDS011;1616;52.394;9.756;2022-08-14T07:10:55;4.10;;;3.70;;
3207;SDS011;1616;52.394;9.756;2022-08-14T07:13:24;4.28;;;3.85;;
3207;SDS011;1616;52.394;9.756;2022-08-14T07:15:51;5.90;;;3.40;;
3207;SDS011;1616;52.394;9.756;2022-08-14T07:18:19;4.03;;;3.83;;
3207;SDS011;1616;52.394;9.756;2022-08-14T07:20:47;5.47;;;2.97;;
3207;SDS011;1616;52.394;9.756;2022-08-14T07:23:13;3.50;;;3.17;;
3207;SDS011;1616;52.394;9.756;2022-08-14T07:25:40;6.00;;;3.75;;
3207;SDS011;1616;52.394;9.756;2022-08-14T07:28:07;3.80;;;3.60;;
3207;SDS011;1616;52.394;9.756;2022-08-14T07:30:40;3.78;;;3.67;;
3207;SDS011;1616;52.394;9.756;2022-08-14T07:33:07;5.43;;;3.70;;
3207;SDS011;1616;52.394;9.756;2022-08-14T07:35:34;3.75;;;3.55;;
3207;SDS011;1616;52.394;9.756;2022-08-14T07:38:02;3.83;;;3.72;;
3207;SDS011;1616;52.394;9.756;2022-08-14T07:40:30;4.25;;;4.13;;
3207;SDS011;1616;52.394;9.756;2022-08-14T07:42:56;4.20;;;4.00;;
3207;SDS011;1616;52.394;9.756;2022-08-14T07:45:22;4.45;;;4.07;;
3207;SDS011;1616;52.394;9.756;2022-08-14T07:47:48;4.20;;;4.00;;
3207;SDS011;1616;52.394;9.756;2022-08-14T07:50:14;4.25;;;4.05;;
3207;SDS011;1616;52.394;9.756;2022-08-14T07:52:42;4.40;;;4.20;;
3207;SDS011;1616;52.394;9.756;2022-08-14T07:55:09;3.70;;;3.50;;
3207;SDS011;1616;52.394;9.756;2022-08-14T07:57:40;4.28;;;3.80;;
3207;SDS011;1616;52.394;9.756;2022-08-14T08:00:11;4.35;;;4.05;;
3207;SDS011;1616;52.394;9.756;2022-08-14T08:02:42;4.43;;;4.03;;
3207;SDS011;1616;52.394;9.756;2022-08-14T08:05:10;4.68;;;4.38;;
3207;SDS011;1616;52.394;9.756;2022-08-14T08:07:37;3.45;;;3.25;;
3207;SDS011;1616;52.394;9.756;2022-08-14T08:10:06;3.88;;;3.67;;
3207;SDS011;1616;52.394;9.756;2022-08-14T08:12:56;4.53;;;4.25;;
3207;SDS011;1616;52.394;9.756;2022-08-14T08:15:23;4.43;;;3.92;;
3207;SDS011;1616;52.394;9.756;2022-08-14T08:17:49;3.85;;;3.65;;
3207;SDS011;1616;52.394;9.756;2022-08-14T08:20:17;4.30;;;4.00;;
3207;SDS011;1616;52.394;9.756;2022-08-14T08:22:44;4.53;;;4.15;;
3207;SDS011;1616;52.394;9.756;2022-08-14T08:25:15;5.88;;;4.05;;
3207;SDS011;1616;52.394;9.756;2022-08-14T08:27:53;5.13;;;4.68;;
3207;SDS011;1616;52.394;9.756;2022-08-14T08:30:25;4.20;;;4.00;;
3207;SDS011;1616;52.394;9.756;2022-08-14T08:32:53;3.30;;;3.20;;
3207;SDS011;1616;52.394;9.756;2022-08-14T08:35:22;4.18;;;3.88;;
3207;SDS011;1616;52.394;9.756;2022-08-14T08:37:51;3.97;;;3.78;;
3207;SDS011;1616;52.394;9.756;2022-08-14T08:40:29;4.70;;;4.47;;
3207;SDS011;1616;52.394;9.756;2022-08-14T08:43:04;4.60;;;4.20;;
3207;SDS011;1616;52.394;9.756;2022-08-14T08:45:40;5.07;;;4.88;;
3207;SDS011;1616;52.394;9.756;2022-08-14T08:48:06;5.35;;;4.95;;
3207;SDS011;1616;52.394;9.756;2022-08-14T08:50:36;5.10;;;4.72;;
3207;SDS011;1616;52.394;9.756;2022-08-14T08:53:04;4.38;;;4.05;;
3207;SDS011;1616;52.394;9.756;2022-08-14T08:55:35;4.43;;;4.07;;
3207;SDS011;1616;52.394;9.756;2022-08-14T08:58:07;4.63;;;4.43;;
3207;SDS011;1616;52.394;9.756;2022-08-14T09:00:34;5.15;;;4.32;;
3207;SDS011;1616;52.394;9.756;2022-08-14T09:03:03;7.25;;;4.88;;
3207;SDS011;1616;52.394;9.756;2022-08-14T09:05:31;3.92;;;3.75;;
3207;SDS011;1616;52.394;9.756;2022-08-14T09:10:50;3.58;;;3.38;;
3207;SDS011;1616;52.394;9.756;2022-08-14T09:13:17;4.68;;;4.28;;
3207;SDS011;1616;52.394;9.756;2022-08-14T09:15:44;3.83;;;3.67;;
3207;SDS011;1616;52.394;9.756;2022-08-14T09:18:12;4.28;;;4.07;;
3207;SDS011;1616;52.394;9.756;2022-08-14T09:20:42;3.92;;;3.72;;
3207;SDS011;1616;52.394;9.756;2022-08-14T09:23:11;4.55;;;4.20;;
3207;SDS011;1616;52.394;9.756;2022-08-14T09:25:38;3.70;;;3.53;;
3207;SDS011;1616;52.394;9.756;2022-08-14T09:28:05;4.35;;;3.95;;
3207;SDS011;1616;52.394;9.756;2022-08-14T09:30:34;4.00;;;3.90;;
3207;SDS011;1616;52.394;9.756;2022-08-14T09:46:56;5.47;;;3.28;;
3207;SDS011;1616;52.394;9.756;2022-08-14T09:49:32;3.60;;;3.30;;
3207;SDS011;1616;52.394;9.756;2022-08-14T09:52:05;4.43;;;3.40;;
3207;SDS011;1616;52.394;9.756;2022-08-14T09:54:40;4.10;;;3.88;;
3207;SDS011;1616;52.394;9.756;2022-08-14T09:57:07;3.28;;;3.17;;
3207;SDS011;1616;52.394;9.756;2022-08-14T10:00:08;3.40;;;3.30;;
3207;SDS011;1616;52.394;9.756;2022-08-14T10:02:34;4.53;;;4.13;;
3207;SDS011;1616;52.394;9.756;2022-08-14T10:05:04;4.43;;;4.13;;
3207;SDS011;1616;52.394;9.756;2022-08-14T10:07:36;3.58;;;3.38;;
3207;SDS011;1616;52.394;9.756;2022-08-14T10:13:06;3.30;;;3.10;;
3207;SDS011;1616;52.394;9.756;2022-08-14T10:15:36;5.43;;;3.47;;
3207;SDS011;1616;52.394;9.756;2022-08-14T10:20:38;3.42;;;3.30;;
3207;SDS011;1616;52.394;9.756;2022-08-14T10:23:11;3.40;;;3.20;;
3207;SDS011;1616;52.394;9.756;2022-08-14T10:25:45;4.32;;;4.13;;
3207;SDS011;1616;52.394;9.756;2022-08-14T10:28:17;3.92;;;3.58;;
3207;SDS011;1616;52.394;9.756;2022-08-14T10:30:45;3.85;;;3.55;;
3207;SDS011;1616;52.394;9.756;2022-08-14T10:33:28;4.43;;;4.13;;
3207;SDS011;1616;52.394;9.756;2022-08-14T10:35:56;3.45;;;3.35;;
3207;SDS011;1616;52.394;9.756;2022-08-14T10:38:30;4.53;;;4.32;;
3207;SDS011;1616;52.394;9.756;2022-08-14T10:41:10;3.58;;;3.45;;
3207;SDS011;1616;52.394;9.756;2022-08-14T10:43:38;3.67;;;3.47;;
3207;SDS011;1616;52.394;9.756;2022-08-14T10:46:16;6.80;;;4.40;;
3207;SDS011;1616;52.394;9.756;2022-08-14T10:48:56;4.22;;;4.03;;
3207;SDS011;1616;52.394;9.756;2022-08-14T10:51:24;5.53;;;3.97;;
3207;SDS011;1616;52.394;9.756;2022-08-14T10:53:54;4.32;;;4.22;;
3207;SDS011;1616;52.394;9.756;2022-08-14T10:56:31;4.05;;;3.85;;
3207;SDS011;1616;52.394;9.756;2022-08-14T10:59:05;4.00;;;3.78;;
3207;SDS011;1616;52.394;9.756;2022-08-14T11:01:33;4.70;;;4.50;;
3207;SDS011;1616;52.394;9.756;2022-08-14T11:04:00;4.25;;;4.05;;
3207;SDS011;1616;52.394;9.756;2022-08-14T11:06:26;4.10;;;3.80;;
3207;SDS011;1616;52.394;9.756;2022-08-14T11:08:53;4.00;;;3.80;;
3207;SDS011;1616;52.394;9.756;2022-08-14T11:11:19;4.25;;;3.50;;
3207;SDS011;1616;52.394;9.756;2022-08-14T11:13:48;3.88;;;3.72;;
3207;SDS011;1616;52.394;9.756;2022-08-14T11:16:15;3.42;;;3.15;;
3207;SDS011;1616;52.394;9.756;2022-08-14T11:18:46;4.22;;;4.03;;
3207;SDS011;1616;52.394;9.756;2022-08-14T11:21:16;4.07;;;3.78;;
3207;SDS011;1616;52.394;9.756;2022-08-14T11:23:45;3.17;;;2.97;;
3207;SDS011;1616;52.394;9.756;2022-08-14T11:26:13;3.88;;;3.63;;
3207;SDS011;1616;52.394;9.756;2022-08-14T11:28:43;3.78;;;3.47;;
3207;SDS011;1616;52.394;9.756;2022-08-14T11:31:11;3.92;;;3.72;;
3207;SDS011;1616;52.394;9.756;2022-08-14T11:33:38;3.45;;;3.35;;
3207;SDS011;1616;52.394;9.756;2022-08-14T11:36:05;3.30;;;3.10;;
3207;SDS011;1616;52.394;9.756;2022-08-14T11:38:41;3.92;;;3.63;;
3207;SDS011;1616;52.394;9.756;2022-08-14T11:41:09;4.30;;;4.10;;
3207;SDS011;1616;52.394;9.756;2022-08-14T11:43:39;4.07;;;3.80;;
3207;SDS011;1616;52.394;9.756;2022-08-14T11:46:07;4.45;;;4.15;;
3207;SDS011;1616;52.394;9.756;2022-08-14T11:48:50;4.22;;;4.00;;
3207;SDS011;1616;52.394;9.756;2022-08-14T11:51:19;3.60;;;3.40;;
3207;SDS011;1616;52.394;9.756;2022-08-14T11:53:54;3.75;;;3.55;;
3207;SDS011;1616;52.394;9.756;2022-08-14T11:56:21;3.20;;;3.00;;
3207;SDS011;1616;52.394;9.756;2022-08-14T11:58:49;3.70;;;3.50;;
3207;SDS011;1616;52.394;9.756;2022-08-14T12:01:22;4.45;;;4.22;;
3207;SDS011;1616;52.394;9.756;2022-08-14T12:03:53;7.18;;;3.70;;
3207;SDS011;1616;52.394;9.756;2022-08-14T12:06:23;4.65;;;3.70;;
3207;SDS011;1616;52.394;9.756;2022-08-14T12:08:49;3.33;;;3.13;;
3207;SDS011;1616;52.394;9.756;2022-08-14T12:11:18;4.07;;;3.88;;
3207;SDS011;1616;52.394;9.756;2022-08-14T12:13:44;4.40;;;4.20;;
3207;SDS011;1616;52.394;9.756;2022-08-14T12:16:14;4.50;;;4.10;;
3207;SDS011;1616;52.394;9.756;2022-08-14T12:18:41;3.53;;;3.33;;
3207;SDS011;1616;52.394;9.756;2022-08-14T12:21:09;4.05;;;3.85;;
3207;SDS011;1616;52.394;9.756;2022-08-14T12:23:43;4.88;;;4.57;;
3207;SDS011;1616;52.394;9.756;2022-08-14T12:26:16;4.50;;;4.30;;
3207;SDS011;1616;52.394;9.756;2022-08-14T12:28:47;5.15;;;4.78;;
3207;SDS011;1616;52.394;9.756;2022-08-14T12:31:17;4.03;;;3.70;;
3207;SDS011;1616;52.394;9.756;2022-08-14T12:33:59;3.92;;;3.72;;
3207;SDS011;1616;52.394;9.756;2022-08-14T12:36:26;3.58;;;3.47;;
3207;SDS011;1616;52.394;9.756;2022-08-14T12:38:56;4.20;;;4.00;;
3207;SDS011;1616;52.394;9.756;2022-08-14T12:41:23;4.20;;;4.00;;
3207;SDS011;1616;52.394;9.756;2022-08-14T12:43:52;3.85;;;3.65;;
3207;SDS011;1616;52.394;9.756;2022-08-14T12:46:39;4.38;;;4.18;;
3207;SDS011;1616;52.394;9.756;2022-08-14T12:49:09;4.45;;;4.15;;
3207;SDS011;1616;52.394;9.756;2022-08-14T12:51:37;4.47;;;4.28;;
3207;SDS011;1616;52.394;9.756;2022-08-14T12:54:17;3.92;;;3.72;;
3207;SDS011;1616;52.394;9.756;2022-08-14T12:56:44;5.75;;;4.20;;
3207;SDS011;1616;52.394;9.756;2022-08-14T12:59:11;4.57;;;4.38;;
3207;SDS011;1616;52.394;9.756;2022-08-14T13:01:38;5.03;;;3.97;;
3207;SDS011;1616;52.394;9.756;2022-08-14T13:06:33;4.43;;;4.22;;
3207;SDS011;1616;52.394;9.756;2022-08-14T13:08:59;3.90;;;3.70;;
3207;SDS011;1616;52.394;9.756;2022-08-14T13:11:26;4.07;;;3.88;;
3207;SDS011;1616;52.394;9.756;2022-08-14T13:14:00;4.97;;;4.72;;
3207;SDS011;1616;52.394;9.756;2022-08-14T13:16:28;5.03;;;4.72;;
3207;SDS011;1616;52.394;9.756;2022-08-14T13:18:55;9.52;;;4.70;;
3207;SDS011;1616;52.394;9.756;2022-08-14T13:21:28;5.45;;;4.93;;
3207;SDS011;1616;52.394;9.756;2022-08-14T13:23:57;5.72;;;5.20;;
3207;SDS011;1616;52.394;9.756;2022-08-14T13:26:25;4.80;;;4.60;;
3207;SDS011;1616;52.394;9.756;2022-08-14T13:28:52;5.15;;;4.95;;
3207;SDS011;1616;52.394;9.756;2022-08-14T13:31:24;4.70;;;4.50;;
3207;SDS011;1616;52.394;9.756;2022-08-14T13:33:51;5.78;;;5.28;;
3207;SDS011;1616;52.394;9.756;2022-08-14T13:36:18;4.50;;;4.10;;
3207;SDS011;1616;52.394;9.756;2022-08-14T13:38:44;5.97;;;5.45;;
3207;SDS011;1616;52.394;9.756;2022-08-14T13:41:14;4.67;;;4.47;;
3207;SDS011;1616;52.394;9.756;2022-08-14T13:43:41;5.60;;;5.40;;
3207;SDS011;1616;52.394;9.756;2022-08-14T13:46:09;5.30;;;4.70;;
3207;SDS011;1616;52.394;9.756;2022-08-14T13:48:35;5.47;;;5.27;;
3207;SDS011;1616;52.394;9.756;2022-08-14T13:51:03;5.60;;;5.40;;
3207;SDS011;1616;52.394;9.756;2022-08-14T13:53:33;5.50;;;5.30;;
3207;SDS011;1616;52.394;9.756;2022-08-14T13:56:07;5.30;;;5.10;;
3207;SDS011;1616;52.394;9.756;2022-08-14T13:58:34;5.67;;;5.47;;
3207;SDS011;1616;52.394;9.756;2022-08-14T14:01:01;5.33;;;5.03;;
3207;SDS011;1616;52.394;9.756;2022-08-14T14:03:27;5.00;;;4.70;;
3207;SDS011;1616;52.394;9.756;2022-08-14T14:05:55;4.90;;;4.70;;
3207;SDS011;1616;52.394;9.756;2022-08-14T14:08:22;6.70;;;6.20;;
3207;SDS011;1616;52.394;9.756;2022-08-14T14:10:48;5.00;;;4.80;;
3207;SDS011;1616;52.394;9.756;2022-08-14T14:13:17;6.00;;;4.77;;
3207;SDS011;1616;52.394;9.756;2022-08-14T14:15:44;5.57;;;5.27;;
3207;SDS011;1616;52.394;9.756;2022-08-14T14:18:12;5.60;;;5.30;;
3207;SDS011;1616;52.394;9.756;2022-08-14T14:20:41;5.17;;;4.67;;
3207;SDS011;1616;52.394;9.756;2022-08-14T14:23:08;5.90;;;5.60;;
3207;SDS011;1616;52.394;9.756;2022-08-14T14:25:41;5.00;;;4.80;;
3207;SDS011;1616;52.394;9.756;2022-08-14T14:28:10;5.10;;;4.70;;
3207;SDS011;1616;52.394;9.756;2022-08-14T14:30:42;5.30;;;4.90;;
3207;SDS011;1616;52.394;9.756;2022-08-14T14:33:10;6.93;;;5.40;;
3207;SDS011;1616;52.394;9.756;2022-08-14T14:35:41;5.67;;;5.37;;
3207;SDS011;1616;52.394;9.756;2022-08-14T14:38:11;4.67;;;4.47;;
3207;SDS011;1616;52.394;9.756;2022-08-14T14:40:39;5.63;;;5.33;;
3207;SDS011;1616;52.394;9.756;2022-08-14T14:43:08;5.40;;;5.20;;
3207;SDS011;1616;52.394;9.756;2022-08-14T14:45:36;4.87;;;4.57;;
3207;SDS011;1616;52.394;9.756;2022-08-14T14:48:03;5.00;;;4.80;;
3207;SDS011;1616;52.394;9.756;2022-08-14T14:50:33;4.60;;;4.40;;
3207;SDS011;1616;52.394;9.756;2022-08-14T14:53:02;5.13;;;4.73;;
3207;SDS011;1616;52.394;9.756;2022-08-14T14:55:30;8.83;;;5.90;;
3207;SDS011;1616;52.394;9.756;2022-08-14T14:57:57;4.97;;;4.43;;
3207;SDS011;1616;52.394;9.756;2022-08-14T15:00:24;4.33;;;4.03;;
3207;SDS011;1616;52.394;9.756;2022-08-14T15:02:51;6.43;;;5.40;;
3207;SDS011;1616;52.394;9.756;2022-08-14T15:05:18;4.90;;;4.70;;
3207;SDS011;1616;52.394;9.756;2022-08-14T15:07:46;4.93;;;4.73;;
3207;SDS011;1616;52.394;9.756;2022-08-14T15:10:15;4.77;;;4.57;;
3207;SDS011;1616;52.394;9.756;2022-08-14T15:12:42;5.27;;;5.00;;
3207;SDS011;1616;52.394;9.756;2022-08-14T15:15:09;5.30;;;5.10;;
3207;SDS011;1616;52.394;9.756;2022-08-14T15:17:36;4.03;;;3.83;;
3207;SDS011;1616;52.394;9.756;2022-08-14T15:20:08;5.27;;;4.70;;
3207;SDS011;1616;52.394;9.756;2022-08-14T15:22:36;5.97;;;5.57;;
3207;SDS011;1616;52.394;9.756;2022-08-14T15:25:03;5.13;;;4.80;;
3207;SDS011;1616;52.394;9.756;2022-08-14T15:27:29;4.60;;;4.30;;
3207;SDS011;1616;52.394;9.756;2022-08-14T15:29:56;5.00;;;4.70;;
3207;SDS011;1616;52.394;9.756;2022-08-14T15:32:22;6.00;;;5.40;;
3207;SDS011;1616;52.394;9.756;2022-08-14T15:34:47;5.00;;;4.60;;
3207;SDS011;1616;52.394;9.756;2022-08-14T15:37:13;4.73;;;4.43;;
3207;SDS011;1616;52.394;9.756;2022-08-14T15:39:39;5.70;;;5.40;;
3207;SDS011;1616;52.394;9.756;2022-08-14T15:42:06;5.30;;;5.10;;
3207;SDS011;1616;52.394;9.756;2022-08-14T15:44:33;6.10;;;5.20;;
3207;SDS011;1616;52.394;9.756;2022-08-14T15:46:59;7.30;;;5.60;;
3207;SDS011;1616;52.394;9.756;2022-08-14T15:49:25;5.63;;;5.43;;
3207;SDS011;1616;52.394;9.756;2022-08-14T15:51:54;10.20;;;9.10;;
3207;SDS011;1616;52.394;9.756;2022-08-14T15:54:24;14.80;;;13.60;;